Gerald, MO

11:24 PM CST on December 26, 2014 (GMT -0600)
Gerald | Change Station
CLOSE
Current Station
Personal Weather Station
Location: Gerald, MO
Elevation: 791 ft
Nearby Weather Stations

Elev 791 ft 38.45 °N, 91.28 °W | Updated 5 minutes ago

Overcast
Overcast
46.7 °F
Feels Like 44 °F
N
5.0
Wind Variable Wind from SSE
Gusts 6.0 mph

Today
High -- | Low -- °F
--% Chance of Precip.
Yesterday
High -- | Low -- °F
Precip. -- in
7:21 AM 4:51 PM
Waxing Crescent, 33% visible
Pressure 30.05 in
Visibility 2.5 miles
Clouds Few 1100 ft
Few 2300 ft
Windchill 44 °F
Dew Point 45 °F
Humidity 94%
Rainfall 0.07 in
Snow Depth Not available.
UV 0 out of 12
Pollen 3.60 out of 12
Air Quality Not available.
Flu Activity Not available.
METAR KFYG 270435Z AUTO 17006KT 2 1/2SM -RA FEW011 FEW023 09/08 A3005 RMK AO2

More Conditions Fewer Conditions

Pressure 30.05 in
Visibility 2.5 miles
Clouds Few 1100 ft
Few 2300 ft
Windchill 44 °F
Dew Point 45 °F
Humidity 94%
Rainfall 0.07 in
Snow Depth Not available.
UV 0 out of 12
Pollen 3.60 out of 12
Air Quality Not available.
Flu Activity Not available.
METAR KFYG 270435Z AUTO 17006KT 2 1/2SM -RA FEW011 FEW023 09/08 A3005 RMK AO2

More Conditions Fewer Conditions

10-Day Weather Forecast

Almanac

Astronomy

Dec. 26, 2014 Rise Set
Actual Time
Civil Twilight
Nautical Twilight
Astronomical Twilight
Moon
Length of Visible Light
Length of Day
Tomorrow will be .
, % of the Moon is Illuminated

Today's Extremes

State Highs State Lows

Community

WunderPhotos

Upload Photos

1,780,848 photos uploaded!

WunderBlogs® & News

Nearby

Air Quality

  Air Quality AQ Index Pollutant
Not available.

Snow Depth

Station Depth Elevation

Earthquake Activity

City Distance Mag. Time & Date
Minimum magnitude displayed is 2.5.

Coastal Water Temperatures

Place Temperature

Nearby Weather Stations